createdAt,value
2022-08-10T00:02:13.174Z,22.20
2022-08-10T00:04:40.331Z,41.53
2022-08-10T00:07:08.180Z,39.40
2022-08-10T00:09:50.269Z,41.45
2022-08-10T00:12:19.354Z,34.60
2022-08-10T00:14:46.692Z,75.70
2022-08-10T00:17:13.929Z,31.25
2022-08-10T00:20:03.609Z,39.38
2022-08-10T00:22:28.140Z,35.78
2022-08-10T00:24:57.203Z,40.38
2022-08-10T00:27:57.894Z,73.57
2022-08-10T00:30:13.287Z,68.72
2022-08-10T00:32:40.409Z,68.47
2022-08-10T00:35:08.093Z,36.35
2022-08-10T00:37:35.220Z,13.00
2022-08-10T00:40:04.518Z,24.65
2022-08-10T00:42:31.996Z,31.17
2022-08-10T00:44:59.218Z,27.40
2022-08-10T00:47:36.891Z,24.55
2022-08-10T00:57:34.659Z,16.40
2022-08-10T01:00:03.430Z,16.35
2022-08-10T01:02:32.098Z,19.75
2022-08-10T01:05:08.226Z,17.85
2022-08-10T01:08:36.329Z,15.52
2022-08-10T01:11:42.401Z,27.73
2022-08-10T01:14:50.983Z,20.15
2022-08-10T01:18:00.159Z,21.05
2022-08-10T01:20:42.593Z,18.48
2022-08-10T01:23:47.156Z,18.63
2022-08-10T01:26:40.668Z,20.42
2022-08-10T01:29:30.776Z,21.40
2022-08-10T01:32:04.647Z,14.35
2022-08-10T01:35:05.013Z,13.00
2022-08-10T01:37:37.680Z,10.55
2022-08-10T01:40:09.213Z,11.52
2022-08-10T01:42:37.857Z,15.18
2022-08-10T01:48:00.466Z,10.32
2022-08-10T01:50:32.986Z,5.72
2022-08-10T01:53:10.994Z,7.80
2022-08-10T01:55:40.249Z,5.18
2022-08-10T01:58:10.072Z,5.18
2022-08-10T02:00:40.597Z,7.35
2022-08-10T02:03:10.257Z,9.20
2022-08-10T02:05:40.083Z,8.00
2022-08-10T02:08:12.441Z,4.05
2022-08-10T02:10:41.964Z,4.18
2022-08-10T02:13:10.259Z,3.67
2022-08-10T02:15:39.507Z,3.25
2022-08-10T02:18:29.118Z,5.13
2022-08-10T02:20:59.280Z,3.80
2022-08-10T02:23:32.494Z,5.03
2022-08-10T02:26:01.057Z,3.60
2022-08-10T02:31:15.556Z,7.40
2022-08-10T02:33:57.536Z,5.57
2022-08-10T02:36:30.507Z,3.70
2022-08-10T02:39:02.046Z,5.25
2022-08-10T02:45:08.205Z,6.18
2022-08-10T02:45:22.919Z,3.15
2022-08-10T02:47:56.564Z,11.85
2022-08-10T02:50:32.837Z,3.78
2022-08-10T02:53:04.409Z,3.97
2022-08-10T02:55:56.708Z,5.47
2022-08-10T02:59:03.879Z,4.32
2022-08-10T03:01:36.112Z,6.18
2022-08-10T03:04:56.043Z,8.05
2022-08-10T03:07:14.887Z,12.55
2022-08-10T03:09:42.883Z,10.82
2022-08-10T03:12:35.032Z,9.80
2022-08-10T03:15:01.353Z,11.77
2022-08-10T03:17:30.245Z,8.33
2022-08-10T03:22:45.931Z,8.23
2022-08-10T03:25:14.417Z,12.63
2022-08-10T03:27:43.402Z,6.00
2022-08-10T03:30:31.615Z,7.13
2022-08-10T03:32:59.932Z,7.20
2022-08-10T03:35:28.309Z,7.97
2022-08-10T03:37:59.529Z,23.38
2022-08-10T03:40:46.465Z,9.90
2022-08-10T03:43:19.771Z,6.82
2022-08-10T03:45:58.028Z,8.93
2022-08-10T03:48:44.807Z,11.90
2022-08-10T03:51:21.184Z,5.28
2022-08-10T03:54:04.367Z,9.10
2022-08-10T03:56:39.271Z,5.93
2022-08-10T03:59:13.430Z,6.28
2022-08-10T04:02:52.643Z,9.25
2022-08-10T04:04:33.161Z,8.52
2022-08-10T04:07:02.059Z,16.00
2022-08-10T04:09:53.639Z,16.58
2022-08-10T04:12:23.449Z,4.38
2022-08-10T04:14:52.885Z,9.95
2022-08-10T04:18:03.362Z,6.13
2022-08-10T04:21:09.373Z,6.18
2022-08-10T04:23:42.095Z,8.55
2022-08-10T04:26:11.456Z,11.75
2022-08-10T04:28:40.293Z,9.65
2022-08-10T04:31:09.519Z,11.85
2022-08-10T04:33:41.579Z,9.85
2022-08-10T04:36:11.363Z,13.15
2022-08-10T04:38:41.162Z,12.05
2022-08-10T04:41:09.100Z,17.05
2022-08-10T04:43:36.593Z,11.90
2022-08-10T04:46:04.008Z,11.57
2022-08-10T04:48:59.549Z,18.15
2022-08-10T04:51:28.173Z,24.58
2022-08-10T04:54:03.992Z,20.77
2022-08-10T04:56:36.258Z,9.57
2022-08-10T04:59:05.409Z,7.10
2022-08-10T05:02:22.306Z,18.27
2022-08-10T05:04:34.973Z,19.50
2022-08-10T05:07:15.812Z,13.68
2022-08-10T05:10:02.866Z,11.35
2022-08-10T05:12:36.275Z,19.10
2022-08-10T05:15:12.412Z,9.48
2022-08-10T05:18:08.872Z,8.73
2022-08-10T05:20:29.685Z,12.88
2022-08-10T05:22:56.826Z,3.58
2022-08-10T05:25:24.029Z,3.63
2022-08-10T05:27:52.418Z,5.90
2022-08-10T05:30:21.975Z,6.18
2022-08-10T05:32:57.112Z,4.22
2022-08-10T05:35:39.113Z,15.43
2022-08-10T05:38:17.457Z,4.22
2022-08-10T05:43:23.758Z,6.45
2022-08-10T05:46:19.076Z,5.68
2022-08-10T05:48:58.792Z,2.75
2022-08-10T05:51:29.293Z,3.90
2022-08-10T05:54:02.531Z,3.65
2022-08-10T05:56:55.169Z,5.00
2022-08-10T06:00:34.552Z,8.13
2022-08-10T06:02:35.429Z,6.47
2022-08-10T06:05:13.389Z,6.28
2022-08-10T06:08:01.340Z,5.07
2022-08-10T06:10:32.895Z,6.63
2022-08-10T06:13:29.899Z,7.05
2022-08-10T06:16:06.605Z,4.07
2022-08-10T06:18:35.382Z,4.28
2022-08-10T06:21:03.856Z,5.32
2022-08-10T06:26:11.792Z,4.30
2022-08-10T06:29:14.201Z,5.75
2022-08-10T06:31:49.923Z,6.55
2022-08-10T06:34:28.732Z,5.10
2022-08-10T06:37:00.601Z,6.60
2022-08-10T06:39:36.613Z,4.80
2022-08-10T06:42:22.041Z,7.78
2022-08-10T06:45:01.194Z,9.85
2022-08-10T06:47:44.204Z,3.30
2022-08-10T06:50:44.605Z,3.28
2022-08-10T06:53:15.458Z,3.65
2022-08-10T06:55:55.455Z,7.05
2022-08-10T06:58:34.907Z,5.75
2022-08-10T07:01:06.589Z,6.53
2022-08-10T07:04:01.355Z,4.75
2022-08-10T07:06:29.730Z,7.15
2022-08-10T07:08:58.729Z,12.23
2022-08-10T07:11:27.020Z,3.78
2022-08-10T07:14:16.734Z,6.07
2022-08-10T07:16:46.547Z,2.90
2022-08-10T07:19:15.155Z,4.93
2022-08-10T07:21:45.762Z,7.05
2022-08-10T07:24:14.967Z,5.25
2022-08-10T07:26:52.215Z,5.22
2022-08-10T07:29:52.715Z,6.35
2022-08-10T07:32:11.719Z,4.30
2022-08-10T07:34:40.314Z,7.15
2022-08-10T07:39:58.509Z,2.80
2022-08-10T07:42:32.195Z,5.68
2022-08-10T07:45:01.369Z,4.15
2022-08-10T07:47:53.334Z,6.38
2022-08-10T07:50:25.168Z,7.50
2022-08-10T07:52:57.160Z,7.53
2022-08-10T07:56:03.630Z,6.00
2022-08-10T07:58:15.439Z,3.80
2022-08-10T08:00:45.833Z,6.88
2022-08-10T08:03:15.230Z,3.55
2022-08-10T08:05:58.444Z,4.70
2022-08-10T08:08:31.601Z,8.10
2022-08-10T08:11:00.230Z,11.55
2022-08-10T08:13:28.947Z,3.75
2022-08-10T08:18:58.283Z,7.00
2022-08-10T08:24:04.926Z,8.57
2022-08-10T08:24:32.935Z,5.47
2022-08-10T08:27:02.416Z,3.80
2022-08-10T08:32:03.358Z,5.20
2022-08-10T08:34:38.879Z,5.00
2022-08-10T08:37:09.570Z,4.07
2022-08-10T08:39:37.601Z,3.55
2022-08-10T08:42:45.243Z,10.13
2022-08-10T08:46:09.316Z,4.40
2022-08-10T08:49:03.819Z,3.22
2022-08-10T08:52:18.409Z,4.10
2022-08-10T08:56:02.918Z,8.95
2022-08-10T08:58:34.001Z,4.70
2022-08-10T09:01:40.209Z,4.18
2022-08-10T09:04:33.870Z,5.80
2022-08-10T09:08:00.535Z,4.43
2022-08-10T09:10:26.201Z,12.15
2022-08-10T09:13:07.616Z,3.92
2022-08-10T09:16:20.215Z,7.28
2022-08-10T09:19:42.775Z,4.65
2022-08-10T09:22:46.531Z,7.18
2022-08-10T09:25:20.976Z,16.52
2022-08-10T09:28:00.184Z,4.80
2022-08-10T09:31:03.679Z,4.45
2022-08-10T09:36:22.615Z,8.30
2022-08-10T09:38:01.139Z,4.65
2022-08-10T09:41:00.160Z,5.97
2022-08-10T09:43:47.856Z,4.50
2022-08-10T09:46:58.734Z,3.85
2022-08-10T09:50:12.613Z,4.43
2022-08-10T09:53:21.255Z,5.60
2022-08-10T09:56:26.747Z,4.00
2022-08-10T09:59:59.468Z,6.55
2022-08-10T10:02:44.660Z,5.25
2022-08-10T10:05:16.066Z,5.10
2022-08-10T10:07:53.163Z,5.82
2022-08-10T10:10:37.947Z,4.35
2022-08-10T10:14:11.805Z,11.70
2022-08-10T10:17:00.435Z,8.07
2022-08-10T10:19:51.098Z,8.73
2022-08-10T10:23:21.336Z,6.10
2022-08-10T10:26:18.653Z,3.95
2022-08-10T10:29:56.675Z,5.30
2022-08-10T10:32:59.572Z,5.25
2022-08-10T10:35:43.737Z,4.70
2022-08-10T10:38:12.962Z,11.98
2022-08-10T10:41:01.013Z,4.43
2022-08-10T10:43:52.196Z,8.15
2022-08-10T10:47:26.339Z,4.72
2022-08-10T10:50:36.717Z,4.82
2022-08-10T10:53:25.701Z,7.65
2022-08-10T10:56:16.133Z,7.68
2022-08-10T10:58:46.199Z,7.32
2022-08-10T11:01:24.260Z,4.85
2022-08-10T11:04:47.825Z,8.30
2022-08-10T11:08:12.169Z,6.88
2022-08-10T11:11:13.088Z,4.27
2022-08-10T11:14:37.827Z,3.85
2022-08-10T11:17:33.179Z,12.00
2022-08-10T11:20:10.189Z,3.22
2022-08-10T11:22:57.402Z,4.60
2022-08-10T11:25:36.609Z,2.83
2022-08-10T11:28:25.258Z,6.03
2022-08-10T11:31:04.151Z,5.00
2022-08-10T11:34:49.304Z,5.10
2022-08-10T11:37:02.270Z,4.53
2022-08-10T11:40:00.604Z,3.40
2022-08-10T11:42:46.225Z,3.47
2022-08-10T11:45:23.076Z,3.72
2022-08-10T11:47:58.426Z,3.92
2022-08-10T11:50:29.601Z,4.45
2022-08-10T11:53:09.451Z,3.80
2022-08-10T11:55:36.683Z,8.77
2022-08-10T11:58:30.576Z,5.10
2022-08-10T12:01:04.655Z,5.97
2022-08-10T12:03:34.924Z,5.63
2022-08-10T12:06:05.501Z,7.82
2022-08-10T12:10:02.574Z,3.85
2022-08-10T12:11:30.872Z,3.58
2022-08-10T12:14:34.015Z,3.40
2022-08-10T12:17:39.162Z,4.28
2022-08-10T12:20:32.922Z,6.18
2022-08-10T12:23:44.653Z,6.93
2022-08-10T12:26:37.485Z,4.57
2022-08-10T12:29:39.500Z,7.15
2022-08-10T12:32:24.724Z,14.40
2022-08-10T12:35:21.688Z,3.63
2022-08-10T12:38:15.203Z,5.10
2022-08-10T12:41:06.189Z,8.10
2022-08-10T12:44:04.373Z,3.75
2022-08-10T12:46:49.759Z,3.78
2022-08-10T12:49:33.478Z,6.60
2022-08-10T12:52:25.461Z,6.57
2022-08-10T12:54:55.906Z,4.88
2022-08-10T12:57:25.715Z,11.10
2022-08-10T12:59:58.350Z,5.03
2022-08-10T13:02:34.248Z,5.78
2022-08-10T13:05:08.076Z,6.30
2022-08-10T13:08:25.260Z,2.33
2022-08-10T13:10:30.002Z,7.28
2022-08-10T13:12:58.972Z,5.32
2022-08-10T13:15:49.069Z,14.05
2022-08-10T13:18:41.104Z,6.97
2022-08-10T13:21:20.123Z,3.03
2022-08-10T13:24:14.288Z,3.65
2022-08-10T13:27:26.767Z,5.90
2022-08-10T13:29:51.418Z,5.53
2022-08-10T13:32:29.945Z,5.03
2022-08-10T13:35:02.465Z,10.32
2022-08-10T13:37:32.538Z,6.03
2022-08-10T13:40:01.406Z,5.45
2022-08-10T13:42:36.822Z,4.03
2022-08-10T13:45:19.736Z,4.57
2022-08-10T13:47:53.517Z,5.68
2022-08-10T13:50:33.351Z,6.43
2022-08-10T13:53:15.450Z,6.65
2022-08-10T13:55:56.873Z,3.00
2022-08-10T13:58:27.186Z,5.00
2022-08-10T14:00:57.595Z,7.35
2022-08-10T14:03:26.582Z,7.55
2022-08-10T14:05:57.657Z,9.02
2022-08-10T14:08:32.187Z,5.60
2022-08-10T14:11:10.987Z,4.30
2022-08-10T14:13:54.330Z,3.60
2022-08-10T14:16:22.659Z,4.57
2022-08-10T14:18:53.640Z,4.93
2022-08-10T14:21:21.683Z,8.20
2022-08-10T14:23:52.231Z,2.70
2022-08-10T14:26:39.986Z,8.23
2022-08-10T14:29:19.905Z,4.00
2022-08-10T14:32:01.095Z,3.33
2022-08-10T14:36:16.289Z,2.53
2022-08-10T14:37:47.708Z,2.90
2022-08-10T14:40:19.628Z,4.18
2022-08-10T14:43:00.382Z,5.38
2022-08-10T14:45:41.338Z,4.03
2022-08-10T14:48:22.521Z,2.42
2022-08-10T14:51:01.069Z,5.53
2022-08-10T14:53:34.983Z,3.97
2022-08-10T14:56:16.702Z,4.25
2022-08-10T14:59:05.750Z,3.50
2022-08-10T15:02:01.372Z,7.65
2022-08-10T15:04:28.821Z,2.75
2022-08-10T15:07:16.994Z,4.70
2022-08-10T15:10:01.047Z,4.68
2022-08-10T15:12:40.924Z,10.25
2022-08-10T15:15:16.492Z,3.67
2022-08-10T15:17:58.975Z,3.58
2022-08-10T15:20:28.955Z,2.63
2022-08-10T15:23:31.179Z,1.63
2022-08-10T15:26:11.408Z,3.53
2022-08-10T15:29:22.660Z,5.38
2022-08-10T15:31:59.480Z,4.57
2022-08-10T15:34:47.637Z,6.07
2022-08-10T15:37:40.647Z,2.17
2022-08-10T15:40:31.063Z,5.53
2022-08-10T15:43:20.247Z,3.30
2022-08-10T15:46:05.658Z,4.70
2022-08-10T15:49:08.812Z,3.15
2022-08-10T15:52:39.256Z,5.28
2022-08-10T15:55:43.335Z,4.53
2022-08-10T15:58:46.950Z,11.10
2022-08-10T16:02:13.111Z,3.45
2022-08-10T16:04:32.135Z,6.00
2022-08-10T16:07:09.738Z,8.25
2022-08-10T16:10:11.125Z,3.90
2022-08-10T16:14:00.303Z,3.97
2022-08-10T16:16:06.849Z,14.18
2022-08-10T16:18:45.009Z,8.35
2022-08-10T16:21:23.771Z,7.68
2022-08-10T16:24:15.699Z,6.78
2022-08-10T16:26:50.543Z,7.07
2022-08-10T16:29:24.572Z,7.22
2022-08-10T16:31:59.294Z,9.65
2022-08-10T16:34:29.344Z,7.75
2022-08-10T16:37:03.578Z,9.38
2022-08-10T16:39:56.931Z,4.60
2022-08-10T16:42:32.952Z,6.97
2022-08-10T16:45:06.294Z,5.85
2022-08-10T16:47:47.814Z,13.73
2022-08-10T16:50:22.850Z,12.75
2022-08-10T16:52:52.441Z,9.00
2022-08-10T16:55:24.443Z,9.70
2022-08-10T16:58:14.651Z,7.25
2022-08-10T17:00:46.233Z,9.68
2022-08-10T17:03:22.618Z,10.15
2022-08-10T17:06:12.032Z,12.35
2022-08-10T17:08:48.272Z,8.88
2022-08-10T17:11:20.209Z,12.70
2022-08-10T17:13:48.076Z,6.28
2022-08-10T17:16:16.932Z,13.50
2022-08-10T17:18:47.311Z,10.70
2022-08-10T17:21:24.430Z,7.72
2022-08-10T17:23:55.506Z,11.50
2022-08-10T17:26:35.238Z,8.25
2022-08-10T17:29:50.502Z,7.20
2022-08-10T17:32:26.927Z,7.95
2022-08-10T17:35:01.150Z,10.75
2022-08-10T17:37:35.653Z,6.22
2022-08-10T17:40:14.096Z,6.45
2022-08-10T17:42:46.750Z,6.65
2022-08-10T17:45:48.822Z,4.47
2022-08-10T17:48:29.771Z,7.63
2022-08-10T17:50:58.736Z,7.68
2022-08-10T17:53:46.373Z,6.70
2022-08-10T17:56:18.980Z,7.60
2022-08-10T17:58:57.219Z,5.57
2022-08-10T18:01:41.598Z,12.38
2022-08-10T18:04:18.819Z,10.05
2022-08-10T18:06:53.944Z,14.18
2022-08-10T18:09:53.786Z,8.05
2022-08-10T18:12:40.166Z,6.05
2022-08-10T18:15:13.262Z,5.38
2022-08-10T18:17:49.937Z,7.93
2022-08-10T18:20:20.325Z,6.30
2022-08-10T18:22:56.763Z,6.28
2022-08-10T18:25:32.218Z,5.57
2022-08-10T18:28:02.240Z,7.95
2022-08-10T18:30:45.149Z,7.38
2022-08-10T18:33:15.177Z,4.32
2022-08-10T18:35:45.184Z,10.77
2022-08-10T18:38:15.696Z,5.80
2022-08-10T18:40:57.028Z,6.68
2022-08-10T18:44:07.341Z,5.05
2022-08-10T18:46:28.190Z,5.45
2022-08-10T18:49:02.448Z,3.97
2022-08-10T18:51:35.692Z,7.88
2022-08-10T18:54:39.190Z,4.53
2022-08-10T18:57:26.980Z,6.53
2022-08-10T19:00:07.531Z,8.45
2022-08-10T19:03:14.493Z,13.32
2022-08-10T19:05:51.259Z,12.68
2022-08-10T19:08:36.719Z,4.85
2022-08-10T19:11:25.102Z,6.22
2022-08-10T19:14:15.727Z,4.75
2022-08-10T19:17:26.411Z,3.70
2022-08-10T19:20:52.224Z,11.75
2022-08-10T19:23:26.916Z,10.20
2022-08-10T19:26:43.804Z,8.50
2022-08-10T19:30:08.391Z,7.35
2022-08-10T19:33:13.729Z,10.52
2022-08-10T19:36:26.066Z,4.88
2022-08-10T19:38:59.299Z,6.78
2022-08-10T19:41:45.291Z,4.60
2022-08-10T19:44:37.483Z,5.88
2022-08-10T19:47:59.396Z,11.45
2022-08-10T19:50:51.444Z,6.05
2022-08-10T19:53:41.976Z,10.35
2022-08-10T19:56:34.090Z,5.95
2022-08-10T19:59:10.208Z,4.38
2022-08-10T20:01:55.231Z,4.80
2022-08-10T20:04:32.197Z,8.55
2022-08-10T20:07:32.047Z,7.72
2022-08-10T20:10:22.839Z,8.35
2022-08-10T20:13:28.616Z,2.58
2022-08-10T20:16:06.553Z,5.07
2022-08-10T20:18:47.916Z,6.35
2022-08-10T20:21:28.315Z,3.50
2022-08-10T20:24:04.966Z,6.65
2022-08-10T20:26:42.517Z,3.80
2022-08-10T20:29:57.745Z,3.28
2022-08-10T20:32:25.201Z,6.97
2022-08-10T20:35:14.465Z,9.75
2022-08-10T20:38:04.198Z,4.72
2022-08-10T20:40:57.533Z,7.97
2022-08-10T20:44:05.734Z,4.55
2022-08-10T20:50:05.876Z,4.32
2022-08-10T20:52:34.765Z,5.82
2022-08-10T20:55:10.773Z,5.25
2022-08-10T20:57:59.248Z,5.05
2022-08-10T21:03:58.657Z,5.15
2022-08-10T21:07:04.949Z,4.82
2022-08-10T21:09:54.700Z,4.47
2022-08-10T21:12:45.864Z,6.28
2022-08-10T21:15:47.105Z,3.30
2022-08-10T21:18:20.613Z,3.80
2022-08-10T21:21:06.714Z,5.15
2022-08-10T21:23:41.274Z,3.80
2022-08-10T21:26:18.593Z,5.30
2022-08-10T21:29:39.745Z,2.28
2022-08-10T21:32:23.246Z,4.93
2022-08-10T21:35:05.265Z,2.22
2022-08-10T21:38:21.311Z,10.05
2022-08-10T21:41:56.490Z,6.22
2022-08-10T21:45:07.755Z,4.32
2022-08-10T21:48:57.241Z,8.15
2022-08-10T21:52:06.700Z,7.93
2022-08-10T21:55:57.235Z,9.18
2022-08-10T21:58:44.317Z,4.25
2022-08-10T22:01:40.772Z,5.90
2022-08-10T22:04:26.711Z,6.45
2022-08-10T22:07:15.141Z,2.28
2022-08-10T22:10:04.674Z,5.28
2022-08-10T22:13:08.429Z,7.72
2022-08-10T22:16:11.598Z,7.88
2022-08-10T22:19:12.530Z,6.35
2022-08-10T22:22:30.034Z,5.25
2022-08-10T22:26:00.135Z,6.82
2022-08-10T22:28:48.857Z,12.20
2022-08-10T22:32:25.468Z,8.82
2022-08-10T22:35:39.124Z,10.10
2022-08-10T22:38:53.177Z,3.08
2022-08-10T22:42:16.277Z,2.38
2022-08-10T22:45:04.752Z,6.97
2022-08-10T22:47:51.840Z,6.13
2022-08-10T22:50:24.187Z,5.57
2022-08-10T22:53:05.520Z,4.07
2022-08-10T22:56:06.676Z,3.35
2022-08-10T22:58:39.909Z,5.70
2022-08-10T23:01:41.921Z,10.02
2022-08-10T23:04:36.296Z,3.00
2022-08-10T23:07:19.925Z,2.00
2022-08-10T23:10:15.672Z,5.07
2022-08-10T23:13:01.097Z,4.63
2022-08-10T23:15:57.545Z,4.53
2022-08-10T23:18:56.140Z,2.95
2022-08-10T23:24:42.042Z,4.85
2022-08-10T23:27:38.587Z,1.58
2022-08-10T23:30:09.334Z,4.55
2022-08-10T23:32:51.374Z,3.60
2022-08-10T23:36:30.145Z,2.05
2022-08-10T23:38:16.176Z,4.50
2022-08-10T23:40:52.534Z,6.53
2022-08-10T23:43:53.403Z,7.68
2022-08-10T23:46:22.796Z,4.63
2022-08-10T23:48:54.352Z,2.20
2022-08-10T23:51:54.811Z,6.95
2022-08-10T23:54:23.393Z,3.22
2022-08-10T23:57:00.724Z,4.60
2022-08-10T23:59:31.527Z,5.80
